createdAt,value
2022-10-17T00:07:41.478Z,100902.34
2022-10-17T00:16:04.457Z,100907.85
2022-10-17T00:24:27.164Z,100916.27
2022-10-17T00:32:49.798Z,100923.08
2022-10-17T00:41:16.197Z,100927.61
2022-10-17T00:49:40.894Z,100925.44
2022-10-17T00:58:05.719Z,100918.89
2022-10-17T01:06:28.380Z,100924.09
2022-10-17T01:15:12.488Z,100929.34
2022-10-17T01:23:41.154Z,100921.81
2022-10-17T01:32:15.177Z,100926.66
2022-10-17T01:41:01.640Z,100933.09
2022-10-17T01:49:28.405Z,100943.27
2022-10-17T01:57:55.404Z,100952.42
2022-10-17T02:06:18.927Z,100952.58
2022-10-17T02:15:07.786Z,100955.81
2022-10-17T02:23:55.513Z,100953.46
2022-10-17T02:32:24.790Z,100955.21
2022-10-17T02:40:51.582Z,100955.25
2022-10-17T02:49:37.846Z,100945.71
2022-10-17T02:58:07.167Z,100948.20
2022-10-17T03:06:33.497Z,100947.10
2022-10-17T03:14:56.317Z,100956.02
2022-10-17T03:23:19.655Z,100961.86
2022-10-17T03:31:43.101Z,100980.27
2022-10-17T03:40:06.710Z,100995.48
2022-10-17T03:48:30.908Z,101011.29
2022-10-17T03:56:54.679Z,101024.69
2022-10-17T04:05:18.591Z,101026.74
2022-10-17T04:13:42.384Z,101014.63
2022-10-17T04:22:05.188Z,101024.75
2022-10-17T04:30:29.931Z,101037.67
2022-10-17T04:38:52.803Z,101032.40
2022-10-17T04:47:15.814Z,101030.88
2022-10-17T04:55:39.623Z,101039.16
2022-10-17T05:04:03.331Z,101048.45
2022-10-17T05:12:26.853Z,101051.98
2022-10-17T05:20:50.021Z,101051.34
2022-10-17T05:29:14.332Z,101070.64
2022-10-17T05:37:40.731Z,101073.80
2022-10-17T05:46:05.424Z,101075.74
2022-10-17T05:54:28.873Z,101091.51
2022-10-17T06:02:51.756Z,101106.48
2022-10-17T06:11:15.543Z,101115.48
2022-10-17T06:19:38.291Z,101136.33
2022-10-17T06:28:01.289Z,101153.13
2022-10-17T06:36:24.668Z,101151.31
2022-10-17T06:44:47.500Z,101158.08
2022-10-17T06:53:29.769Z,101174.73
2022-10-17T07:02:24.242Z,101183.66
2022-10-17T07:10:48.894Z,101181.80
2022-10-17T07:19:11.688Z,101180.94
2022-10-17T07:27:35.282Z,101178.01
2022-10-17T07:36:00.331Z,101194.41
2022-10-17T07:44:23.249Z,101197.80
2022-10-17T07:52:47.355Z,101192.91
2022-10-17T08:01:15.525Z,101197.50
2022-10-17T08:09:39.712Z,101200.40
2022-10-17T08:18:02.492Z,101181.44
2022-10-17T08:26:25.242Z,101185.31
2022-10-17T08:34:48.433Z,101199.74
2022-10-17T08:43:38.073Z,101211.70
2022-10-17T08:52:32.133Z,101212.54
2022-10-17T09:01:26.207Z,101207.67
2022-10-17T09:09:52.068Z,101213.63
2022-10-17T09:18:26.361Z,101214.30
2022-10-17T09:26:51.358Z,101211.04
2022-10-17T09:35:15.034Z,101198.31
2022-10-17T09:43:39.623Z,101204.07
2022-10-17T09:52:05.585Z,101201.27
2022-10-17T10:00:43.628Z,101206.92
2022-10-17T10:09:17.963Z,101210.03
2022-10-17T10:17:41.999Z,101205.28
2022-10-17T10:26:12.965Z,101200.11
2022-10-17T10:34:37.812Z,101191.35
2022-10-17T10:43:05.332Z,101185.73
2022-10-17T10:51:41.409Z,101181.96
2022-10-17T11:00:17.371Z,101164.18
2022-10-17T11:08:48.800Z,101153.08
2022-10-17T11:17:36.465Z,101137.27
2022-10-17T11:26:05.680Z,101139.77
2022-10-17T11:34:33.380Z,101127.03
2022-10-17T11:43:13.592Z,101123.11
2022-10-17T11:52:00.630Z,101122.83
2022-10-17T12:00:34.837Z,101115.38
2022-10-17T12:09:08.709Z,101106.14
2022-10-17T12:17:36.897Z,101101.93
2022-10-17T12:26:06.465Z,101100.02
2022-10-17T12:34:29.465Z,101099.59
2022-10-17T12:42:52.249Z,101094.92
2022-10-17T12:51:34.919Z,101093.92
2022-10-17T13:00:03.884Z,101090.45
2022-10-17T13:08:45.187Z,101090.58
2022-10-17T13:17:22.803Z,101089.95
2022-10-17T13:25:45.506Z,101087.00
2022-10-17T13:34:20.384Z,101087.61
2022-10-17T13:42:43.369Z,101073.92
2022-10-17T13:51:10.302Z,101070.90
2022-10-17T13:59:47.715Z,101067.05
2022-10-17T14:08:22.007Z,101060.94
2022-10-17T14:16:46.688Z,101058.09
2022-10-17T14:25:30.773Z,101058.71
2022-10-17T14:33:55.113Z,101054.39
2022-10-17T14:42:23.242Z,101056.56
2022-10-17T14:51:12.376Z,101054.04
2022-10-17T14:59:53.428Z,101055.68
2022-10-17T15:08:18.394Z,101059.79
2022-10-17T15:16:41.028Z,101070.38
2022-10-17T15:25:03.963Z,101063.39
2022-10-17T15:33:26.756Z,101069.93
2022-10-17T15:41:49.492Z,101069.95
2022-10-17T15:50:15.150Z,101070.54
2022-10-17T15:58:42.869Z,101072.38
2022-10-17T16:07:07.357Z,101079.16
2022-10-17T16:15:30.092Z,101079.50
2022-10-17T16:23:52.787Z,101083.45
2022-10-17T16:32:15.443Z,101087.63
2022-10-17T16:40:39.810Z,101075.79
2022-10-17T16:49:04.581Z,101086.47
2022-10-17T16:57:27.305Z,101090.33
2022-10-17T17:05:51.797Z,101087.59
2022-10-17T17:14:14.618Z,101088.38
2022-10-17T17:22:37.291Z,101081.52
2022-10-17T17:31:01.397Z,101081.30
2022-10-17T17:39:24.163Z,101071.78
2022-10-17T17:47:46.828Z,101076.58
2022-10-17T17:56:14.183Z,101077.91
2022-10-17T18:04:36.822Z,101076.87
2022-10-17T18:12:59.569Z,101074.80
2022-10-17T18:21:22.650Z,101076.23
2022-10-17T18:29:48.754Z,101074.15
2022-10-17T18:38:11.797Z,101072.19
2022-10-17T18:46:40.105Z,101072.50
2022-10-17T18:55:03.221Z,101063.52
2022-10-17T19:03:25.857Z,101057.23
2022-10-17T19:11:48.624Z,101055.66
2022-10-17T19:20:11.373Z,101057.71
2022-10-17T19:28:35.197Z,101054.33
2022-10-17T19:36:57.938Z,101052.45
2022-10-17T19:45:20.780Z,101062.23
2022-10-17T19:54:00.411Z,101061.42
2022-10-17T20:02:25.708Z,101062.90
2022-10-17T20:10:48.786Z,101056.03
2022-10-17T20:19:13.622Z,101044.59
2022-10-17T20:27:36.543Z,101041.59
2022-10-17T20:35:59.306Z,101040.31
2022-10-17T20:44:22.102Z,101029.83
2022-10-17T20:52:44.731Z,101024.42
2022-10-17T21:01:09.267Z,101015.55
2022-10-17T21:09:32.061Z,101011.50
2022-10-17T21:17:54.784Z,101006.23
2022-10-17T21:26:18.442Z,100996.84
2022-10-17T21:34:41.123Z,100986.38
2022-10-17T21:43:03.789Z,100985.92
2022-10-17T21:51:27.357Z,100976.56
2022-10-17T21:59:51.864Z,100963.90
2022-10-17T22:08:14.565Z,100970.17
2022-10-17T22:16:38.375Z,100958.00
2022-10-17T22:25:01.140Z,100955.48
2022-10-17T22:33:24.161Z,100946.48
2022-10-17T22:41:46.890Z,100943.10
2022-10-17T22:50:09.804Z,100943.00
2022-10-17T22:58:34.198Z,100946.95
2022-10-17T23:06:56.945Z,100947.55
2022-10-17T23:15:19.631Z,100948.38
2022-10-17T23:23:42.427Z,100944.90
2022-10-17T23:32:05.367Z,100934.79
2022-10-17T23:40:28.192Z,100933.57
2022-10-17T23:48:51.292Z,100929.19
2022-10-17T23:57:14.559Z,100924.87
